createdAt,value
2022-10-13T00:01:23.003Z,17.13
2022-10-13T00:03:52.753Z,17.10
2022-10-13T00:06:25.395Z,16.40
2022-10-13T00:08:54.254Z,16.37
2022-10-13T00:11:24.652Z,16.77
2022-10-13T00:13:56.022Z,16.00
2022-10-13T00:16:24.971Z,15.17
2022-10-13T00:18:53.662Z,14.93
2022-10-13T00:21:26.728Z,13.97
2022-10-13T00:23:55.923Z,15.10
2022-10-13T00:26:26.607Z,14.53
2022-10-13T00:28:56.041Z,14.53
2022-10-13T00:31:26.288Z,13.63
2022-10-13T00:33:55.043Z,13.90
2022-10-13T00:36:25.791Z,13.90
2022-10-13T00:38:54.677Z,15.17
2022-10-13T00:41:23.400Z,13.90
2022-10-13T00:43:58.637Z,14.80
2022-10-13T00:46:28.983Z,13.63
2022-10-13T00:48:59.372Z,13.60
2022-10-13T00:51:32.823Z,12.73
2022-10-13T00:54:02.968Z,13.63
2022-10-13T00:56:31.858Z,12.60
2022-10-13T00:59:02.837Z,12.77
2022-10-13T01:01:31.443Z,12.50
2022-10-13T01:04:00.046Z,12.93
2022-10-13T01:06:29.953Z,13.17
2022-10-13T01:08:58.399Z,12.00
2022-10-13T01:11:51.261Z,13.13
2022-10-13T01:14:26.576Z,13.03
2022-10-13T01:17:03.815Z,13.47
2022-10-13T01:20:06.033Z,13.13
2022-10-13T01:22:47.138Z,13.37
2022-10-13T01:25:34.511Z,14.00
2022-10-13T01:28:19.456Z,13.33
2022-10-13T01:30:53.536Z,13.80
2022-10-13T01:33:31.732Z,15.60
2022-10-13T01:36:12.750Z,15.57
2022-10-13T01:38:47.940Z,13.90
2022-10-13T01:41:23.608Z,13.90
2022-10-13T01:43:57.781Z,13.23
2022-10-13T01:46:31.412Z,13.37
2022-10-13T01:49:03.807Z,13.47
2022-10-13T01:51:34.427Z,14.30
2022-10-13T01:54:03.111Z,12.83
2022-10-13T01:56:31.614Z,13.37
2022-10-13T01:59:03.054Z,13.77
2022-10-13T02:01:49.445Z,13.73
2022-10-13T02:04:28.927Z,13.73
2022-10-13T02:07:05.081Z,13.30
2022-10-13T02:09:43.070Z,14.10
2022-10-13T02:12:18.510Z,14.10
2022-10-13T02:14:49.654Z,14.17
2022-10-13T02:17:20.523Z,14.40
2022-10-13T02:19:49.079Z,14.80
2022-10-13T02:22:19.406Z,13.63
2022-10-13T02:24:48.410Z,12.80
2022-10-13T02:27:17.631Z,14.40
2022-10-13T02:29:53.904Z,13.97
2022-10-13T02:32:24.516Z,12.87
2022-10-13T02:34:53.492Z,12.17
2022-10-13T02:37:22.389Z,12.43
2022-10-13T02:39:50.881Z,12.17
2022-10-13T02:42:19.986Z,12.67
2022-10-13T02:44:48.571Z,13.70
2022-10-13T02:47:17.092Z,12.17
2022-10-13T02:49:47.113Z,14.73
2022-10-13T02:52:15.919Z,13.83
2022-10-13T02:54:44.420Z,14.93
2022-10-13T02:57:12.978Z,14.97
2022-10-13T02:59:41.465Z,14.20
2022-10-13T03:02:10.456Z,13.10
2022-10-13T03:04:39.140Z,13.90
2022-10-13T03:07:09.148Z,16.60
2022-10-13T03:09:37.664Z,22.17
2022-10-13T03:12:06.334Z,31.53
2022-10-13T03:14:34.843Z,31.30
2022-10-13T03:17:03.832Z,27.53
2022-10-13T03:19:33.535Z,25.83
2022-10-13T03:22:02.121Z,23.47
2022-10-13T03:24:32.569Z,21.43
2022-10-13T03:27:01.166Z,18.57
2022-10-13T03:29:30.045Z,18.47
2022-10-13T03:31:58.751Z,18.00
2022-10-13T03:34:27.326Z,17.20
2022-10-13T03:36:56.023Z,17.13
2022-10-13T03:39:25.022Z,16.43
2022-10-13T03:41:54.915Z,15.03
2022-10-13T03:44:23.712Z,15.93
2022-10-13T03:46:52.508Z,15.57
2022-10-13T03:49:21.551Z,15.93
2022-10-13T03:51:50.049Z,15.47
2022-10-13T03:54:19.114Z,16.63
2022-10-13T03:56:47.701Z,16.30
2022-10-13T03:59:18.851Z,15.50
2022-10-13T04:01:47.367Z,15.40
2022-10-13T04:04:16.125Z,17.50
2022-10-13T04:06:44.648Z,19.20
2022-10-13T04:09:13.309Z,18.40
2022-10-13T04:11:41.780Z,18.47
2022-10-13T04:14:10.369Z,16.67
2022-10-13T04:16:41.121Z,17.17
2022-10-13T04:19:10.096Z,16.57
2022-10-13T04:21:38.639Z,17.03
2022-10-13T04:24:07.999Z,16.83
2022-10-13T04:26:37.920Z,17.40
2022-10-13T04:29:07.471Z,17.27
2022-10-13T04:31:37.464Z,16.93
2022-10-13T04:34:08.091Z,18.83
2022-10-13T04:36:36.803Z,18.30
2022-10-13T04:39:05.799Z,18.77
2022-10-13T04:41:34.314Z,17.70
2022-10-13T04:44:02.945Z,19.40
2022-10-13T04:46:31.657Z,17.87
2022-10-13T04:49:00.238Z,17.80
2022-10-13T04:51:30.188Z,16.80
2022-10-13T04:54:01.328Z,17.93
2022-10-13T04:56:30.613Z,16.57
2022-10-13T04:59:00.118Z,17.57
2022-10-13T05:01:29.133Z,16.73
2022-10-13T05:04:01.089Z,16.70
2022-10-13T05:06:33.051Z,17.27
2022-10-13T05:09:02.051Z,17.57
2022-10-13T05:11:31.445Z,16.63
2022-10-13T05:14:00.556Z,21.50
2022-10-13T05:16:30.870Z,25.20
2022-10-13T05:18:59.581Z,21.93
2022-10-13T05:21:30.124Z,18.90
2022-10-13T05:24:02.795Z,18.80
2022-10-13T05:26:32.398Z,18.13
2022-10-13T05:29:02.461Z,18.27
2022-10-13T05:31:32.432Z,18.33
2022-10-13T05:34:01.240Z,19.13
2022-10-13T05:36:32.696Z,18.67
2022-10-13T05:39:05.971Z,18.80
2022-10-13T05:41:34.661Z,18.87
2022-10-13T05:44:06.129Z,19.60
2022-10-13T05:46:34.826Z,19.93
2022-10-13T05:49:03.617Z,19.57
2022-10-13T05:51:36.704Z,20.17
2022-10-13T05:54:11.739Z,19.97
2022-10-13T05:56:46.477Z,20.33
2022-10-13T05:59:23.349Z,20.13
2022-10-13T06:01:55.680Z,21.53
2022-10-13T06:04:27.590Z,21.70
2022-10-13T06:06:56.260Z,22.00
2022-10-13T06:09:26.183Z,23.67
2022-10-13T06:11:54.678Z,22.90
2022-10-13T06:14:23.155Z,23.33
2022-10-13T06:16:51.745Z,26.33
2022-10-13T06:19:20.142Z,26.70
2022-10-13T06:21:49.000Z,26.70
2022-10-13T06:24:17.599Z,27.57
2022-10-13T06:26:48.846Z,28.77
2022-10-13T06:29:19.300Z,27.63
2022-10-13T06:31:49.252Z,28.00
2022-10-13T06:34:19.036Z,30.17
2022-10-13T06:36:47.628Z,30.17
2022-10-13T06:39:16.222Z,28.40
2022-10-13T06:41:44.816Z,30.73
2022-10-13T06:44:15.566Z,30.77
2022-10-13T06:46:44.128Z,30.00
2022-10-13T06:49:14.044Z,30.03
2022-10-13T06:51:42.587Z,31.03
2022-10-13T06:54:11.204Z,29.63
2022-10-13T06:56:39.663Z,29.83
2022-10-13T06:59:08.177Z,30.13
2022-10-13T07:01:41.523Z,28.73
2022-10-13T07:04:10.859Z,28.87
2022-10-13T07:06:39.407Z,29.87
2022-10-13T07:09:09.085Z,28.27
2022-10-13T07:11:37.690Z,29.40
2022-10-13T07:14:06.150Z,27.57
2022-10-13T07:16:34.645Z,29.27
2022-10-13T07:19:04.645Z,29.13
2022-10-13T07:21:33.485Z,28.23
2022-10-13T07:24:03.176Z,26.43
2022-10-13T07:26:34.095Z,27.70
2022-10-13T07:29:02.629Z,25.60
2022-10-13T07:31:31.330Z,26.53
2022-10-13T07:34:01.519Z,26.33
2022-10-13T07:36:40.912Z,23.03
2022-10-13T07:39:10.298Z,23.00
2022-10-13T07:41:39.079Z,23.03
2022-10-13T07:44:14.778Z,24.87
2022-10-13T07:46:43.399Z,24.83
2022-10-13T07:49:15.255Z,24.27
2022-10-13T07:51:46.468Z,24.00
2022-10-13T07:54:14.986Z,22.17
2022-10-13T07:56:43.434Z,21.10
2022-10-13T07:59:12.006Z,22.13
2022-10-13T08:01:41.240Z,22.43
2022-10-13T08:04:09.752Z,21.83
2022-10-13T08:06:38.270Z,22.70
2022-10-13T08:09:08.156Z,23.23
2022-10-13T08:11:36.675Z,24.27
2022-10-13T08:14:05.173Z,20.07
2022-10-13T08:16:34.164Z,19.93
2022-10-13T08:19:02.692Z,19.07
2022-10-13T08:22:01.219Z,17.63
2022-10-13T08:24:22.975Z,18.00
2022-10-13T08:26:51.736Z,17.70
2022-10-13T08:29:22.354Z,18.50
2022-10-13T08:31:52.376Z,20.20
2022-10-13T08:34:21.198Z,17.60
2022-10-13T08:36:53.057Z,17.70
2022-10-13T08:39:24.482Z,17.90
2022-10-13T08:41:53.444Z,15.67
2022-10-13T08:47:25.875Z,16.53
2022-10-13T08:49:59.795Z,14.97
2022-10-13T08:52:31.441Z,16.03
2022-10-13T08:55:01.490Z,16.13
2022-10-13T08:57:30.302Z,15.83
2022-10-13T08:59:58.904Z,15.77
2022-10-13T09:02:32.317Z,15.43
2022-10-13T09:05:04.817Z,13.80
2022-10-13T09:07:38.226Z,13.43
2022-10-13T09:10:10.588Z,12.93
2022-10-13T09:12:39.145Z,12.50
2022-10-13T09:15:10.290Z,12.30
2022-10-13T09:17:40.912Z,13.30
2022-10-13T09:20:20.853Z,12.33
2022-10-13T09:23:03.854Z,13.00
2022-10-13T09:25:42.294Z,11.87
2022-10-13T09:28:17.187Z,12.57
2022-10-13T09:30:48.376Z,12.23
2022-10-13T09:33:25.142Z,12.37
2022-10-13T09:36:12.147Z,11.40
2022-10-13T09:38:41.806Z,10.87
2022-10-13T09:41:21.101Z,10.77
2022-10-13T09:44:06.062Z,11.60
2022-10-13T09:46:37.876Z,11.03
2022-10-13T09:49:09.800Z,11.23
2022-10-13T09:51:41.276Z,9.73
2022-10-13T09:54:28.833Z,10.67
2022-10-13T09:57:03.340Z,11.73
2022-10-13T09:59:34.853Z,9.70
2022-10-13T10:02:18.025Z,9.43
2022-10-13T10:04:49.169Z,10.00
2022-10-13T10:07:23.302Z,10.30
2022-10-13T10:09:56.410Z,10.17
2022-10-13T10:12:31.876Z,10.17
2022-10-13T10:15:00.439Z,9.33
2022-10-13T10:17:38.180Z,9.93
2022-10-13T10:20:26.684Z,8.63
2022-10-13T10:23:03.667Z,9.00
2022-10-13T10:25:39.618Z,8.63
2022-10-13T10:28:24.529Z,9.13
2022-10-13T10:31:01.047Z,8.47
2022-10-13T10:33:37.560Z,9.47
2022-10-13T10:36:17.034Z,8.73
2022-10-13T10:38:50.917Z,9.93
2022-10-13T10:41:40.128Z,8.73
2022-10-13T10:44:14.337Z,9.17
2022-10-13T10:46:48.133Z,8.50
2022-10-13T10:49:21.454Z,8.53
2022-10-13T10:51:50.850Z,7.57
2022-10-13T10:54:32.435Z,7.13
2022-10-13T10:57:08.023Z,6.43
2022-10-13T10:59:51.396Z,6.50
2022-10-13T11:02:42.828Z,6.57
2022-10-13T11:05:11.805Z,6.77
2022-10-13T11:08:01.408Z,6.90
2022-10-13T11:10:30.807Z,7.97
2022-10-13T11:13:18.726Z,7.20
2022-10-13T11:15:48.951Z,7.07
2022-10-13T11:18:54.540Z,6.40
2022-10-13T11:21:23.662Z,7.20
2022-10-13T11:23:52.232Z,6.83
2022-10-13T11:26:32.546Z,6.67
2022-10-13T11:29:01.533Z,7.10
2022-10-13T11:31:50.497Z,6.37
2022-10-13T11:34:30.343Z,7.00
2022-10-13T11:37:02.005Z,6.20
2022-10-13T11:40:00.867Z,6.27
2022-10-13T11:43:08.478Z,6.03
2022-10-13T11:46:06.613Z,5.90
2022-10-13T11:49:11.307Z,5.43
2022-10-13T11:51:57.517Z,4.90
2022-10-13T11:54:33.848Z,6.00
2022-10-13T11:57:02.432Z,6.13
2022-10-13T11:59:33.496Z,6.47
2022-10-13T12:02:13.997Z,5.33
2022-10-13T12:04:47.141Z,6.10
2022-10-13T12:07:17.394Z,6.37
2022-10-13T12:09:52.411Z,5.77
2022-10-13T12:12:23.228Z,5.27
2022-10-13T12:14:55.055Z,6.20
2022-10-13T12:17:25.954Z,6.03
2022-10-13T12:19:58.515Z,6.43
2022-10-13T12:22:27.732Z,5.67
2022-10-13T12:25:00.730Z,6.37
2022-10-13T12:27:32.806Z,6.47
2022-10-13T12:30:01.418Z,5.27
2022-10-13T12:32:31.485Z,5.97
2022-10-13T12:35:19.850Z,5.47
2022-10-13T12:37:49.351Z,5.70
2022-10-13T12:40:19.677Z,5.77
2022-10-13T12:42:49.048Z,5.80
2022-10-13T12:45:19.656Z,5.47
2022-10-13T12:47:50.335Z,6.10
2022-10-13T12:50:38.941Z,5.50
2022-10-13T12:53:14.608Z,4.83
2022-10-13T12:55:55.559Z,5.90
2022-10-13T12:58:28.439Z,5.00
2022-10-13T13:01:07.975Z,4.80
2022-10-13T13:03:39.144Z,4.63
2022-10-13T13:06:34.830Z,5.87
2022-10-13T13:09:28.850Z,4.87
2022-10-13T13:12:28.575Z,4.43
2022-10-13T13:14:58.626Z,4.70
2022-10-13T13:17:56.543Z,4.97
2022-10-13T13:20:22.362Z,5.53
2022-10-13T13:22:52.293Z,4.50
2022-10-13T13:25:20.941Z,4.50
2022-10-13T13:27:49.443Z,5.20
2022-10-13T13:30:19.707Z,4.60
2022-10-13T13:32:48.386Z,4.40
2022-10-13T13:35:16.952Z,4.13
2022-10-13T13:37:49.149Z,4.20
2022-10-13T13:40:21.308Z,3.80
2022-10-13T13:42:49.987Z,4.53
2022-10-13T13:45:20.189Z,4.27
2022-10-13T13:47:50.848Z,4.60
2022-10-13T13:50:23.435Z,4.57
2022-10-13T13:52:52.042Z,4.70
2022-10-13T13:55:23.339Z,4.50
2022-10-13T13:57:53.428Z,4.73
2022-10-13T14:00:22.505Z,4.60
2022-10-13T14:02:51.410Z,4.17
2022-10-13T14:05:19.889Z,5.17
2022-10-13T14:07:48.352Z,4.60
2022-10-13T14:10:17.155Z,4.70
2022-10-13T14:12:47.094Z,4.30
2022-10-13T14:15:15.671Z,4.47
2022-10-13T14:17:44.350Z,5.20
2022-10-13T14:20:13.962Z,4.83
2022-10-13T14:22:42.817Z,4.30
2022-10-13T14:25:12.189Z,4.30
2022-10-13T14:27:41.164Z,4.13
2022-10-13T14:30:12.323Z,4.00
2022-10-13T14:32:41.168Z,4.20
2022-10-13T14:35:10.264Z,4.23
2022-10-13T14:37:39.258Z,4.87
2022-10-13T14:40:08.936Z,4.83
2022-10-13T14:42:39.240Z,4.07
2022-10-13T14:45:09.373Z,3.80
2022-10-13T14:47:39.283Z,4.17
2022-10-13T14:50:08.878Z,4.30
2022-10-13T14:52:39.102Z,3.97
2022-10-13T14:55:08.655Z,4.53
2022-10-13T14:57:37.194Z,4.23
2022-10-13T15:00:06.533Z,4.20
2022-10-13T15:02:35.115Z,4.23
2022-10-13T15:05:06.679Z,4.13
2022-10-13T15:07:41.191Z,4.53
2022-10-13T15:10:10.604Z,5.10
2022-10-13T15:12:39.304Z,5.80
2022-10-13T15:15:08.677Z,6.30
2022-10-13T15:17:38.388Z,6.67
2022-10-13T15:20:09.923Z,9.83
2022-10-13T15:22:38.770Z,7.97
2022-10-13T15:25:10.557Z,40.60
2022-10-13T15:27:42.272Z,7.87
2022-10-13T15:30:12.115Z,5.77
2022-10-13T15:32:41.315Z,7.10
2022-10-13T15:35:16.648Z,6.43
2022-10-13T15:37:48.322Z,5.17
2022-10-13T15:40:17.333Z,5.67
2022-10-13T15:42:46.407Z,4.93
2022-10-13T15:45:16.162Z,6.33
2022-10-13T15:47:48.267Z,7.70
2022-10-13T15:50:19.719Z,8.10
2022-10-13T15:52:49.001Z,9.17
2022-10-13T15:55:18.257Z,9.50
2022-10-13T15:57:47.308Z,7.87
2022-10-13T16:00:17.198Z,7.73
2022-10-13T16:02:46.577Z,8.03
2022-10-13T16:05:20.061Z,13.30
2022-10-13T16:07:51.987Z,9.07
2022-10-13T16:10:22.992Z,10.13
2022-10-13T16:12:53.206Z,9.90
2022-10-13T16:15:23.752Z,9.03
2022-10-13T16:17:53.661Z,8.70
2022-10-13T16:20:23.467Z,10.63
2022-10-13T16:22:54.977Z,12.10
2022-10-13T16:25:23.969Z,11.90
2022-10-13T16:27:52.536Z,10.40
2022-10-13T16:30:22.442Z,9.17
2022-10-13T16:32:51.345Z,10.27
2022-10-13T16:35:19.929Z,9.97
2022-10-13T16:37:49.004Z,10.97
2022-10-13T16:40:19.373Z,12.10
2022-10-13T16:42:48.228Z,13.07
2022-10-13T16:45:17.170Z,12.53
2022-10-13T16:47:51.150Z,13.13
2022-10-13T16:50:19.761Z,13.93
2022-10-13T16:52:48.354Z,15.43
2022-10-13T16:55:17.179Z,17.80
2022-10-13T16:57:48.218Z,19.20
2022-10-13T17:00:16.867Z,20.70
2022-10-13T17:02:45.352Z,23.97
2022-10-13T17:05:14.108Z,30.53
2022-10-13T17:07:42.913Z,44.33
2022-10-13T17:10:12.136Z,51.87
2022-10-13T17:12:40.669Z,79.03
2022-10-13T17:15:11.881Z,99.73
2022-10-13T17:17:40.357Z,94.23
2022-10-13T17:20:14.743Z,63.00
2022-10-13T17:22:43.576Z,48.13
2022-10-13T17:25:13.716Z,46.83
2022-10-13T17:28:03.436Z,45.40
2022-10-13T17:30:48.149Z,46.00
2022-10-13T17:33:37.279Z,44.83
2022-10-13T17:36:07.529Z,39.77
2022-10-13T17:38:36.407Z,34.67
2022-10-13T17:41:08.290Z,34.13
2022-10-13T17:43:38.978Z,34.73
2022-10-13T17:46:35.647Z,37.67
2022-10-13T17:49:05.557Z,41.17
2022-10-13T17:51:35.543Z,38.57
2022-10-13T17:54:04.135Z,33.63
2022-10-13T17:56:32.831Z,48.13
2022-10-13T17:59:02.166Z,41.93
2022-10-13T18:01:33.426Z,36.33
2022-10-13T18:04:05.384Z,34.23
2022-10-13T18:06:40.210Z,34.10
2022-10-13T18:09:10.494Z,30.60
2022-10-13T18:11:39.757Z,28.03
2022-10-13T18:14:09.167Z,27.23
2022-10-13T18:16:39.274Z,28.03
2022-10-13T18:19:08.176Z,26.80
2022-10-13T18:21:36.609Z,28.63
2022-10-13T18:24:05.394Z,26.60
2022-10-13T18:26:36.148Z,26.90
2022-10-13T18:29:06.413Z,27.60
2022-10-13T18:31:36.151Z,25.30
2022-10-13T18:34:08.092Z,20.67
2022-10-13T18:36:38.336Z,17.43
2022-10-13T18:39:09.132Z,17.07
2022-10-13T18:41:39.028Z,19.27
2022-10-13T18:44:20.269Z,16.70
2022-10-13T18:46:51.656Z,15.37
2022-10-13T18:49:24.085Z,15.30
2022-10-13T18:51:52.819Z,15.27
2022-10-13T18:54:21.382Z,16.37
2022-10-13T18:56:50.073Z,15.53
2022-10-13T18:59:18.668Z,15.03
2022-10-13T19:01:47.806Z,15.87
2022-10-13T19:04:17.173Z,16.50
2022-10-13T19:06:48.034Z,17.73
2022-10-13T19:09:20.476Z,17.57
2022-10-13T19:11:49.058Z,17.37
2022-10-13T19:14:20.175Z,19.67
2022-10-13T19:16:48.930Z,27.97
2022-10-13T19:19:17.621Z,26.27
2022-10-13T19:21:47.832Z,24.23
2022-10-13T19:24:16.302Z,23.30
2022-10-13T19:26:44.914Z,21.20
2022-10-13T19:29:16.488Z,20.43
2022-10-13T19:31:45.448Z,21.30
2022-10-13T19:34:14.901Z,23.43
2022-10-13T19:36:45.409Z,23.50
2022-10-13T19:39:17.999Z,25.03
2022-10-13T19:41:47.205Z,22.60
2022-10-13T19:44:16.812Z,22.73
2022-10-13T19:46:47.313Z,21.83
2022-10-13T19:49:19.291Z,20.77
2022-10-13T19:51:49.614Z,18.97
2022-10-13T19:54:21.326Z,20.33
2022-10-13T19:56:51.624Z,18.63
2022-10-13T19:59:21.455Z,17.43
2022-10-13T20:01:50.479Z,17.03
2022-10-13T20:04:22.104Z,17.23
2022-10-13T20:06:52.458Z,16.40
2022-10-13T20:09:23.466Z,17.20
2022-10-13T20:12:02.401Z,17.20
2022-10-13T20:14:32.192Z,17.07
2022-10-13T20:17:01.521Z,18.10
2022-10-13T20:19:30.494Z,17.80
2022-10-13T20:22:01.571Z,18.00
2022-10-13T20:24:32.696Z,18.33
2022-10-13T20:27:01.709Z,17.47
2022-10-13T20:29:30.781Z,17.83
2022-10-13T20:32:02.871Z,17.70
2022-10-13T20:34:32.995Z,17.23
2022-10-13T20:37:01.775Z,16.77
2022-10-13T20:39:31.803Z,17.83
2022-10-13T20:42:00.804Z,17.90
2022-10-13T20:44:29.781Z,17.37
2022-10-13T20:46:58.732Z,17.47
2022-10-13T20:49:28.552Z,17.93
2022-10-13T20:51:57.594Z,17.50
2022-10-13T20:54:27.321Z,18.57
2022-10-13T20:56:58.170Z,17.03
2022-10-13T20:59:26.860Z,17.00
2022-10-13T21:01:55.461Z,17.43
2022-10-13T21:04:24.862Z,18.27
2022-10-13T21:06:54.399Z,17.83
2022-10-13T21:09:23.778Z,18.43
2022-10-13T21:11:52.522Z,17.50
2022-10-13T21:14:23.095Z,17.50
2022-10-13T21:16:52.002Z,17.30
2022-10-13T21:19:21.299Z,16.90
2022-10-13T21:21:50.207Z,17.37
2022-10-13T21:24:18.995Z,19.93
2022-10-13T21:26:47.996Z,18.03
2022-10-13T21:29:16.583Z,19.00
2022-10-13T21:31:46.712Z,19.40
2022-10-13T21:34:15.391Z,18.97
2022-10-13T21:36:45.320Z,18.23
2022-10-13T21:39:13.818Z,19.67
2022-10-13T21:41:43.118Z,19.33
2022-10-13T21:44:14.654Z,18.77
2022-10-13T21:46:43.373Z,17.97
2022-10-13T21:49:13.468Z,17.97
2022-10-13T21:51:42.616Z,18.67
2022-10-13T21:54:13.471Z,18.43
2022-10-13T21:56:42.543Z,18.60
2022-10-13T21:59:13.047Z,18.77
2022-10-13T22:01:41.930Z,18.57
2022-10-13T22:04:14.112Z,18.87
2022-10-13T22:06:43.021Z,19.60
2022-10-13T22:09:12.221Z,18.90
2022-10-13T22:11:41.218Z,19.93
2022-10-13T22:14:10.417Z,19.83
2022-10-13T22:16:41.465Z,18.80
2022-10-13T22:19:10.872Z,18.30
2022-10-13T22:21:42.952Z,18.90
2022-10-13T22:24:13.978Z,18.67
2022-10-13T22:26:43.984Z,19.20
2022-10-13T22:29:16.074Z,19.77
2022-10-13T22:31:44.473Z,19.83
2022-10-13T22:34:14.200Z,19.20
2022-10-13T22:36:45.390Z,19.00
2022-10-13T22:39:14.243Z,19.30
2022-10-13T22:41:42.785Z,19.97
2022-10-13T22:44:11.598Z,18.33
2022-10-13T22:46:41.290Z,19.73
2022-10-13T22:49:10.186Z,19.23
2022-10-13T22:51:39.094Z,18.30
2022-10-13T22:54:09.012Z,18.63
2022-10-13T22:56:37.544Z,20.80
2022-10-13T22:59:08.250Z,26.87
2022-10-13T23:01:37.555Z,25.87
2022-10-13T23:04:07.105Z,24.87
2022-10-13T23:06:36.866Z,27.50
2022-10-13T23:09:07.507Z,26.90
2022-10-13T23:11:37.605Z,25.13
2022-10-13T23:14:06.272Z,27.77
2022-10-13T23:16:35.005Z,25.83
2022-10-13T23:19:03.886Z,25.03
2022-10-13T23:21:32.826Z,23.13
2022-10-13T23:24:03.358Z,22.70
2022-10-13T23:26:33.880Z,22.60
2022-10-13T23:29:04.108Z,23.50
2022-10-13T23:31:32.584Z,24.40
2022-10-13T23:34:01.148Z,25.43
2022-10-13T23:36:31.734Z,24.80
2022-10-13T23:39:02.062Z,23.40
2022-10-13T23:41:30.620Z,23.27
2022-10-13T23:43:59.525Z,25.13
2022-10-13T23:46:30.019Z,23.47
2022-10-13T23:48:58.665Z,24.33
2022-10-13T23:51:27.965Z,24.43
2022-10-13T23:53:56.808Z,23.47
2022-10-13T23:56:25.514Z,23.90
2022-10-13T23:58:54.227Z,23.13
